createdAt,value
2022-10-19T00:00:35.973Z,7.8
2022-10-19T00:02:37.960Z,7.8
2022-10-19T00:04:40.053Z,7.7
2022-10-19T00:08:47.506Z,7.6
2022-10-19T00:17:22.684Z,7.5
2022-10-19T00:19:24.789Z,7.5
2022-10-19T00:21:30.116Z,7.3
2022-10-19T00:23:32.227Z,7.3
2022-10-19T00:25:34.337Z,7.2
2022-10-19T00:27:36.416Z,7.3
2022-10-19T00:29:38.505Z,7.3
2022-10-19T00:31:40.619Z,7.3
2022-10-19T00:33:42.706Z,7.2
2022-10-19T00:35:48.033Z,7
2022-10-19T00:37:50.131Z,7.1
2022-10-19T00:39:52.239Z,7.1
2022-10-19T00:41:54.317Z,7
2022-10-19T00:43:56.395Z,7
2022-10-19T00:45:58.499Z,7
2022-10-19T00:50:05.916Z,6.9
2022-10-19T00:52:08.014Z,6.9
2022-10-19T00:56:12.206Z,6.8
2022-10-19T00:58:14.276Z,6.8
2022-10-19T01:00:16.363Z,6.8
2022-10-19T01:02:18.452Z,6.8
2022-10-19T01:04:23.773Z,6.8
2022-10-19T01:06:25.844Z,6.9
2022-10-19T01:08:27.912Z,6.9
2022-10-19T01:09:30.616Z,6.9
2022-10-19T01:11:32.710Z,6.9
2022-10-19T01:13:34.777Z,6.9
2022-10-19T01:15:36.855Z,6.8
2022-10-19T01:17:42.158Z,6.7
2022-10-19T01:19:44.285Z,6.7
2022-10-19T01:21:46.365Z,6.7
2022-10-19T01:23:48.430Z,6.6
2022-10-19T01:25:50.509Z,6.7
2022-10-19T01:27:52.606Z,6.6
2022-10-19T01:29:54.677Z,6.7
2022-10-19T01:31:59.999Z,6.7
2022-10-19T01:34:02.080Z,6.7
2022-10-19T01:36:04.176Z,6.6
2022-10-19T01:38:06.230Z,6.7
2022-10-19T01:40:08.307Z,6.6
2022-10-19T01:42:10.401Z,6.5
2022-10-19T01:44:12.464Z,6.5
2022-10-19T01:46:17.762Z,6.5
2022-10-19T01:48:19.874Z,6.5
2022-10-19T01:50:21.940Z,6.5
2022-10-19T01:52:24.007Z,6.6
2022-10-19T01:54:26.088Z,6.5
2022-10-19T01:56:28.179Z,6.5
2022-10-19T01:58:30.242Z,6.4
2022-10-19T02:00:35.666Z,6.5
2022-10-19T02:02:37.629Z,6.5
2022-10-19T02:04:39.694Z,6.5
2022-10-19T02:05:42.343Z,6.4
2022-10-19T02:07:44.403Z,6.4
2022-10-19T02:09:46.485Z,6.4
2022-10-19T02:11:49.748Z,6.4
2022-10-19T02:13:53.880Z,6.5
2022-10-19T02:15:55.964Z,6.5
2022-10-19T02:17:58.057Z,6.4
2022-10-19T02:20:00.154Z,6.4
2022-10-19T02:22:02.235Z,6.5
2022-10-19T02:24:04.281Z,6.5
2022-10-19T02:26:06.360Z,6.5
2022-10-19T02:28:11.655Z,6.6
2022-10-19T02:30:13.747Z,6.5
2022-10-19T02:32:15.807Z,6.5
2022-10-19T02:34:17.892Z,6.4
2022-10-19T02:36:19.936Z,6.4
2022-10-19T02:38:22.032Z,6.3
2022-10-19T02:40:24.116Z,6.2
2022-10-19T02:48:35.582Z,6.2
2022-10-19T02:50:37.645Z,6.2
2022-10-19T02:52:39.732Z,6.1
2022-10-19T02:54:43.354Z,6.2
2022-10-19T02:58:50.691Z,6.2
2022-10-19T03:01:55.413Z,6.1
2022-10-19T03:03:57.475Z,6.1
2022-10-19T03:05:59.525Z,6.1
2022-10-19T03:08:01.610Z,6
2022-10-19T03:10:06.903Z,6.1
2022-10-19T03:12:08.941Z,6.1
2022-10-19T03:18:15.151Z,6.1
2022-10-19T03:20:17.205Z,6
2022-10-19T03:22:19.253Z,5.9
2022-10-19T03:24:24.543Z,5.8
2022-10-19T03:26:26.636Z,5.8
2022-10-19T03:32:32.824Z,5.8
2022-10-19T03:34:34.881Z,5.9
2022-10-19T03:36:36.919Z,5.9
2022-10-19T03:38:42.223Z,6
2022-10-19T03:40:44.286Z,6
2022-10-19T03:50:54.587Z,6
2022-10-19T03:57:03.996Z,6
2022-10-19T03:59:32.912Z,6.1
2022-10-19T04:01:34.962Z,6
2022-10-19T04:03:37.040Z,6
2022-10-19T04:05:42.329Z,6
2022-10-19T04:07:44.377Z,6
2022-10-19T04:09:46.438Z,6
2022-10-19T04:11:48.492Z,6
2022-10-19T04:13:50.577Z,6
2022-10-19T04:15:52.608Z,5.9
2022-10-19T04:17:54.665Z,6
2022-10-19T04:19:59.942Z,6
2022-10-19T04:22:02.021Z,6
2022-10-19T04:24:04.108Z,6
2022-10-19T04:26:06.132Z,5.9
2022-10-19T04:28:08.183Z,5.9
2022-10-19T04:30:10.278Z,5.9
2022-10-19T04:32:12.312Z,5.9
2022-10-19T04:34:17.587Z,5.8
2022-10-19T04:36:19.645Z,5.8
2022-10-19T04:38:21.704Z,5.8
2022-10-19T04:40:23.765Z,5.8
2022-10-19T04:42:25.806Z,5.8
2022-10-19T04:44:27.884Z,5.8
2022-10-19T04:46:29.908Z,5.8
2022-10-19T04:50:37.280Z,5.8
2022-10-19T04:52:39.350Z,5.7
2022-10-19T04:55:44.053Z,5.7
2022-10-19T04:57:46.098Z,5.7
2022-10-19T04:59:48.155Z,5.8
2022-10-19T05:01:53.408Z,5.8
2022-10-19T05:05:57.508Z,5.9
2022-10-19T05:07:59.616Z,5.9
2022-10-19T05:10:01.670Z,5.8
2022-10-19T05:12:03.684Z,5.8
2022-10-19T05:14:05.696Z,5.8
2022-10-19T05:16:11.018Z,5.9
2022-10-19T05:18:13.135Z,5.9
2022-10-19T05:20:15.129Z,5.8
2022-10-19T05:22:17.150Z,5.9
2022-10-19T05:24:19.217Z,5.8
2022-10-19T05:26:21.327Z,5.8
2022-10-19T05:28:23.479Z,5.7
2022-10-19T05:30:28.627Z,5.7
2022-10-19T05:32:30.671Z,5.8
2022-10-19T05:34:32.736Z,5.7
2022-10-19T05:36:34.910Z,5.7
2022-10-19T05:38:36.814Z,5.8
2022-10-19T05:40:38.890Z,5.9
2022-10-19T05:42:40.909Z,5.8
2022-10-19T05:44:46.204Z,5.6
2022-10-19T05:46:49.270Z,5.6
2022-10-19T05:48:50.288Z,5.5
2022-10-19T05:49:52.939Z,5.5
2022-10-19T05:51:54.990Z,5.6
2022-10-19T05:53:57.047Z,5.5
2022-10-19T05:55:59.089Z,5.5
2022-10-19T05:58:04.370Z,5.3
2022-10-19T06:00:06.404Z,5.3
2022-10-19T06:02:08.484Z,5.2
2022-10-19T06:04:10.578Z,5.2
2022-10-19T06:06:12.554Z,5.2
2022-10-19T06:08:14.566Z,5.2
2022-10-19T06:10:16.627Z,5.2
2022-10-19T06:12:25.000Z,5.3
2022-10-19T06:14:23.956Z,5.3
2022-10-19T06:16:25.986Z,5.3
2022-10-19T06:18:28.010Z,5.3
2022-10-19T06:20:30.083Z,5.3
2022-10-19T06:22:32.106Z,5.3
2022-10-19T06:26:39.411Z,5.4
2022-10-19T06:28:41.435Z,5.4
2022-10-19T06:32:45.536Z,5.5
2022-10-19T06:34:47.551Z,5.6
2022-10-19T06:36:49.568Z,5.6
2022-10-19T06:38:51.607Z,5.6
2022-10-19T06:40:56.871Z,5.7
2022-10-19T06:42:58.903Z,5.8
2022-10-19T06:45:00.942Z,6
2022-10-19T06:46:03.601Z,6.1
2022-10-19T06:50:07.673Z,6.2
2022-10-19T06:52:09.700Z,6.4
2022-10-19T06:56:17.031Z,6.5
2022-10-19T06:58:19.077Z,6.5
2022-10-19T07:00:21.103Z,6.5
2022-10-19T07:02:23.157Z,6.6
2022-10-19T07:04:25.223Z,6.6
2022-10-19T07:06:27.259Z,6.6
2022-10-19T07:08:32.602Z,6.7
2022-10-19T07:10:34.650Z,6.7
2022-10-19T07:12:36.700Z,6.8
2022-10-19T07:14:38.788Z,6.8
2022-10-19T07:16:40.827Z,6.9
2022-10-19T07:18:42.884Z,6.9
2022-10-19T07:20:44.938Z,6.8
2022-10-19T07:22:50.248Z,6.8
2022-10-19T07:24:52.321Z,6.9
2022-10-19T07:26:54.361Z,7
2022-10-19T07:28:56.417Z,7.1
2022-10-19T07:30:58.506Z,7.2
2022-10-19T07:33:00.572Z,7.3
2022-10-19T07:35:02.643Z,7.3
2022-10-19T07:37:07.937Z,7.4
2022-10-19T07:39:10.010Z,7.4
2022-10-19T07:41:12.051Z,7.5
2022-10-19T07:45:43.028Z,7.4
2022-10-19T07:47:45.126Z,7.4
2022-10-19T07:49:50.437Z,7.5
2022-10-19T07:51:52.511Z,7.6
2022-10-19T07:53:54.586Z,7.7
2022-10-19T07:55:56.663Z,7.9
2022-10-19T07:57:58.927Z,7.9
2022-10-19T08:00:00.856Z,8.1
2022-10-19T08:02:02.980Z,8.2
2022-10-19T08:06:10.336Z,8.3
2022-10-19T08:08:12.447Z,8.4
2022-10-19T08:10:14.548Z,8.5
2022-10-19T08:12:16.655Z,8.6
2022-10-19T08:14:18.746Z,8.8
2022-10-19T08:16:20.858Z,8.9
2022-10-19T08:18:26.254Z,9
2022-10-19T08:20:28.303Z,9
2022-10-19T08:22:30.447Z,9.1
2022-10-19T08:24:32.534Z,9.2
2022-10-19T08:26:34.644Z,9.3
2022-10-19T08:28:36.754Z,9.4
2022-10-19T08:32:44.214Z,9.5
2022-10-19T08:34:46.356Z,9.5
2022-10-19T08:36:48.498Z,9.6
2022-10-19T08:37:51.521Z,9.6
2022-10-19T08:39:53.304Z,9.7
2022-10-19T08:41:55.427Z,9.7
2022-10-19T08:43:57.689Z,9.7
2022-10-19T08:46:04.467Z,9.8
2022-10-19T08:48:06.590Z,9.9
2022-10-19T08:50:08.712Z,10
2022-10-19T08:52:10.896Z,10.1
2022-10-19T08:54:13.185Z,10.2
2022-10-19T08:56:22.103Z,10.3
2022-10-19T08:58:17.295Z,10.3
2022-10-19T09:00:22.822Z,10.4
2022-10-19T09:02:24.842Z,10.5
2022-10-19T09:04:26.989Z,10.7
2022-10-19T09:06:29.128Z,10.8
2022-10-19T09:08:31.370Z,10.9
2022-10-19T09:10:33.439Z,11
2022-10-19T09:12:35.826Z,10.9
2022-10-19T09:14:40.971Z,11.1
2022-10-19T09:16:43.151Z,11.2
2022-10-19T09:18:45.339Z,11.3
2022-10-19T09:20:47.472Z,11.3
2022-10-19T09:22:49.649Z,11.6
2022-10-19T09:24:51.964Z,11.7
2022-10-19T09:26:53.977Z,11.8
2022-10-19T09:31:01.439Z,11.9
2022-10-19T09:34:06.410Z,12.5
2022-10-19T09:36:08.491Z,12.4
2022-10-19T09:38:10.657Z,12.3
2022-10-19T09:40:12.952Z,12.2
2022-10-19T09:42:18.238Z,12.2
2022-10-19T09:52:29.034Z,12.6
2022-10-19T09:56:36.532Z,12.6
2022-10-19T09:58:38.695Z,12.7
2022-10-19T10:06:47.250Z,13
2022-10-19T10:08:49.553Z,13
2022-10-19T10:10:54.623Z,13.1
2022-10-19T10:12:56.715Z,13.1
2022-10-19T10:14:58.791Z,13.2
2022-10-19T10:17:00.882Z,13.3
2022-10-19T10:19:02.972Z,13.1
2022-10-19T10:23:07.142Z,13.1
2022-10-19T10:25:12.572Z,13.3
2022-10-19T10:29:16.819Z,13.3
2022-10-19T10:30:19.467Z,13.5
2022-10-19T10:32:21.540Z,13.4
2022-10-19T10:34:37.595Z,13.2
2022-10-19T10:36:25.805Z,13.2
2022-10-19T10:38:31.117Z,13.3
2022-10-19T10:40:33.211Z,13.4
2022-10-19T10:42:35.670Z,13.3
2022-10-19T10:44:37.401Z,13.2
2022-10-19T10:46:39.475Z,13.3
2022-10-19T10:48:41.678Z,13.4
2022-10-19T10:50:43.876Z,13.4
2022-10-19T10:52:49.287Z,13.4
2022-10-19T10:54:51.383Z,13.3
2022-10-19T10:56:53.447Z,13.4
2022-10-19T10:58:55.563Z,13.6
2022-10-19T11:00:57.652Z,13.5
2022-10-19T11:02:59.738Z,13.4
2022-10-19T11:05:01.829Z,13.4
2022-10-19T11:07:07.048Z,13.4
2022-10-19T11:09:09.260Z,13.4
2022-10-19T11:11:11.239Z,13.4
2022-10-19T11:13:13.323Z,13.4
2022-10-19T11:15:15.507Z,13.5
2022-10-19T11:17:17.520Z,13.4
2022-10-19T11:19:19.609Z,13.4
2022-10-19T11:21:24.951Z,13.4
2022-10-19T11:23:27.049Z,13.3
2022-10-19T11:25:29.181Z,13.5
2022-10-19T11:27:57.821Z,13.6
2022-10-19T11:29:59.912Z,13.5
2022-10-19T11:32:02.012Z,13.5
2022-10-19T11:34:07.287Z,13.6
2022-10-19T11:36:09.342Z,13.7
2022-10-19T11:40:13.564Z,13.8
2022-10-19T11:42:15.793Z,13.7
2022-10-19T11:44:17.733Z,13.7
2022-10-19T11:50:29.711Z,14.4
2022-10-19T11:52:29.460Z,14.3
2022-10-19T11:54:31.403Z,14.2
2022-10-19T11:58:35.605Z,14
2022-10-19T12:00:39.561Z,14.1
2022-10-19T12:06:47.179Z,14.1
2022-10-19T12:08:51.236Z,14
2022-10-19T12:10:51.366Z,14
2022-10-19T12:12:53.462Z,14.2
2022-10-19T12:14:55.554Z,14
2022-10-19T12:17:01.018Z,14.1
2022-10-19T12:19:02.899Z,14.1
2022-10-19T12:21:05.021Z,14.1
2022-10-19T12:22:07.620Z,14
2022-10-19T12:36:25.484Z,14.1
2022-10-19T12:38:27.629Z,14.1
2022-10-19T12:40:29.703Z,14.4
2022-10-19T12:42:31.809Z,14.6
2022-10-19T12:44:37.040Z,14.4
2022-10-19T12:46:39.151Z,14.3
2022-10-19T12:48:41.380Z,14.2
2022-10-19T12:50:43.355Z,14.2
2022-10-19T12:52:45.473Z,14.3
2022-10-19T12:54:47.572Z,14.4
2022-10-19T13:00:57.123Z,14.2
2022-10-19T13:02:59.119Z,14.4
2022-10-19T13:05:01.207Z,14.4
2022-10-19T13:07:03.347Z,14.4
2022-10-19T13:09:05.667Z,14.4
2022-10-19T13:11:07.553Z,14.4
2022-10-19T13:13:12.783Z,14.3
2022-10-19T13:15:14.884Z,14.4
2022-10-19T13:17:16.991Z,14.4
2022-10-19T13:18:19.614Z,14.4
2022-10-19T13:20:21.715Z,14.5
2022-10-19T13:22:23.814Z,14.6
2022-10-19T13:24:25.947Z,14.6
2022-10-19T13:26:31.171Z,14.6
2022-10-19T13:30:35.390Z,14.6
2022-10-19T13:32:37.975Z,14.7
2022-10-19T13:36:41.724Z,14.6
2022-10-19T13:38:43.809Z,14.7
2022-10-19T13:40:49.061Z,15
2022-10-19T13:42:51.197Z,15
2022-10-19T13:44:53.269Z,15
2022-10-19T13:46:55.501Z,14.9
2022-10-19T13:48:57.499Z,15.4
2022-10-19T13:50:59.584Z,17.1
2022-10-19T13:53:01.685Z,16.7
2022-10-19T13:55:06.953Z,16.8
2022-10-19T13:57:09.052Z,17.3
2022-10-19T13:59:11.173Z,17.1
2022-10-19T14:01:13.261Z,17.3
2022-10-19T14:03:15.377Z,18.9
2022-10-19T14:05:17.490Z,19.8
2022-10-19T14:07:19.598Z,19.8
2022-10-19T14:09:24.876Z,20.1
2022-10-19T14:11:27.006Z,20.2
2022-10-19T14:13:29.120Z,20.1
2022-10-19T14:14:31.841Z,20.9
2022-10-19T14:16:33.850Z,20.7
2022-10-19T14:18:35.966Z,20
2022-10-19T14:20:38.091Z,20.5
2022-10-19T14:22:43.363Z,20.8
2022-10-19T14:24:45.463Z,20.6
2022-10-19T14:26:47.592Z,20.1
2022-10-19T14:28:49.709Z,20.1
2022-10-19T14:30:51.825Z,20.1
2022-10-19T14:32:55.710Z,20
2022-10-19T14:34:56.094Z,20.3
2022-10-19T14:37:02.905Z,20.7
2022-10-19T14:39:04.996Z,20.7
2022-10-19T14:41:07.101Z,20.6
2022-10-19T14:43:09.220Z,19.9
2022-10-19T14:45:11.336Z,19.7
2022-10-19T14:47:13.448Z,19.3
2022-10-19T14:49:15.587Z,18.6
2022-10-19T14:53:22.977Z,19.9
2022-10-19T14:55:25.097Z,19.4
2022-10-19T14:59:29.410Z,18.8
2022-10-19T15:01:31.512Z,18.4
2022-10-19T15:03:33.605Z,18.1
2022-10-19T15:05:38.859Z,18.5
2022-10-19T15:07:40.978Z,18.6
2022-10-19T15:09:47.978Z,18.9
2022-10-19T15:12:11.746Z,19
2022-10-19T15:14:13.895Z,18.9
2022-10-19T15:16:16.011Z,18.5
2022-10-19T15:20:23.386Z,17.9
2022-10-19T15:22:25.512Z,18.2
2022-10-19T15:26:29.774Z,18
2022-10-19T15:30:34.002Z,18.6
2022-10-19T15:32:39.591Z,18.3
2022-10-19T15:34:41.407Z,17.9
2022-10-19T15:36:43.494Z,16.9
2022-10-19T15:38:45.610Z,15.8
2022-10-19T15:46:57.232Z,14
2022-10-19T15:53:03.599Z,13.8
2022-10-19T15:55:05.680Z,13.6
2022-10-19T15:59:09.918Z,13.4
2022-10-19T16:01:15.196Z,13.4
2022-10-19T16:03:17.314Z,13.4
2022-10-19T16:05:19.390Z,13.2
2022-10-19T16:06:22.023Z,13.2
2022-10-19T16:08:24.182Z,13.2
2022-10-19T16:10:26.249Z,13.1
2022-10-19T16:12:28.353Z,13
2022-10-19T16:14:36.443Z,12.9
2022-10-19T16:16:35.713Z,12.9
2022-10-19T16:18:37.819Z,12.9
2022-10-19T16:20:40.016Z,12.8
2022-10-19T16:22:42.232Z,12.7
2022-10-19T16:24:44.585Z,12.6
2022-10-19T16:26:46.564Z,12.5
2022-10-19T16:28:51.792Z,12.5
2022-10-19T16:30:53.887Z,12.4
2022-10-19T16:32:55.968Z,12.3
2022-10-19T16:34:58.089Z,12.3
2022-10-19T16:37:02.691Z,12.2
2022-10-19T16:39:02.470Z,12.2
2022-10-19T16:41:04.689Z,12.1
2022-10-19T16:43:10.010Z,12
2022-10-19T16:45:12.209Z,12
2022-10-19T16:47:14.412Z,11.9
2022-10-19T16:49:16.600Z,11.9
2022-10-19T16:51:18.779Z,11.8
2022-10-19T16:53:20.984Z,11.8
2022-10-19T16:55:23.171Z,11.8
2022-10-19T16:57:28.521Z,11.8
2022-10-19T16:59:30.591Z,11.7
2022-10-19T17:01:32.805Z,11.8
2022-10-19T17:02:35.626Z,11.7
2022-10-19T17:04:37.463Z,11.7
2022-10-19T17:06:39.655Z,11.7
2022-10-19T17:09:14.694Z,11.6
2022-10-19T17:12:49.163Z,11.6
2022-10-19T17:14:51.432Z,11.6
2022-10-19T17:20:57.921Z,11.6
2022-10-19T17:23:00.137Z,11.5
2022-10-19T17:25:05.546Z,11.5
2022-10-19T17:27:07.749Z,11.5
2022-10-19T17:29:09.905Z,11.5
2022-10-19T17:31:11.998Z,11.4
2022-10-19T17:33:14.199Z,11.5
2022-10-19T17:35:16.376Z,11.4
2022-10-19T17:37:18.564Z,11.4
2022-10-19T17:39:27.237Z,11.3
2022-10-19T17:41:26.202Z,11.4
2022-10-19T17:43:28.392Z,11.3
2022-10-19T17:45:30.677Z,11.3
2022-10-19T17:47:32.853Z,11.3
2022-10-19T17:49:34.822Z,11.3
2022-10-19T17:51:37.004Z,11.3
2022-10-19T17:53:42.449Z,11.2
2022-10-19T17:55:44.642Z,11.2
2022-10-19T17:57:46.850Z,11.2
2022-10-19T17:58:49.496Z,11.2
2022-10-19T18:07:01.419Z,11.1
2022-10-19T18:09:03.641Z,11.1
2022-10-19T18:15:09.996Z,11
2022-10-19T18:19:14.374Z,11
2022-10-19T18:21:19.780Z,10.9
2022-10-19T18:23:21.969Z,11
2022-10-19T18:25:42.238Z,10.9
2022-10-19T18:27:26.472Z,10.9
2022-10-19T18:29:28.492Z,10.8
2022-10-19T18:31:30.640Z,10.8
2022-10-19T18:33:32.815Z,10.8
2022-10-19T18:35:38.225Z,10.7
2022-10-19T18:37:40.405Z,10.6
2022-10-19T18:39:42.577Z,10.6
2022-10-19T18:43:46.942Z,10.7
2022-10-19T18:45:49.094Z,10.5
2022-10-19T18:47:51.416Z,10.6
2022-10-19T18:49:56.683Z,10.5
2022-10-19T18:51:58.849Z,10.5
2022-10-19T18:54:01.035Z,10.5
2022-10-19T18:56:29.923Z,10.4
2022-10-19T18:58:31.990Z,10.5
2022-10-19T19:00:34.156Z,10.3
2022-10-19T19:02:46.550Z,10.3
2022-10-19T19:04:41.723Z,10.3
2022-10-19T19:06:43.897Z,10.3
2022-10-19T19:08:46.073Z,10.3
2022-10-19T19:10:48.240Z,10.3
2022-10-19T19:12:50.400Z,10.2
2022-10-19T19:14:52.543Z,10.2
2022-10-19T19:16:57.929Z,10.1
2022-10-19T19:19:00.139Z,10.2
2022-10-19T19:21:02.271Z,10.1
2022-10-19T19:23:04.450Z,10.1
2022-10-19T19:25:06.624Z,10.1
2022-10-19T19:27:08.774Z,10
2022-10-19T19:29:10.917Z,10
2022-10-19T19:31:16.321Z,9.9
2022-10-19T19:33:18.473Z,10
2022-10-19T19:37:22.806Z,9.9
2022-10-19T19:39:24.952Z,9.9
2022-10-19T19:41:27.094Z,9.9
2022-10-19T19:43:29.261Z,9.8
2022-10-19T19:45:34.640Z,9.8
2022-10-19T19:47:37.134Z,9.8
2022-10-19T19:49:38.960Z,9.7
2022-10-19T19:56:48.141Z,9.6
2022-10-19T19:58:53.530Z,9.6
2022-10-19T20:00:55.702Z,9.6
2022-10-19T20:02:57.833Z,9.6
2022-10-19T20:05:00.004Z,9.5
2022-10-19T20:07:02.132Z,9.5
2022-10-19T20:09:04.374Z,9.5
2022-10-19T20:11:06.466Z,9.5
2022-10-19T20:13:11.845Z,9.4
2022-10-19T20:15:14.000Z,9.5
2022-10-19T20:17:16.105Z,9.4
2022-10-19T20:19:18.272Z,9.4
2022-10-19T20:21:20.426Z,9.4
2022-10-19T20:23:22.582Z,9.4
2022-10-19T20:25:24.728Z,9.3
2022-10-19T20:33:38.077Z,9.3
2022-10-19T20:35:40.239Z,9.2
2022-10-19T20:37:42.393Z,9.2
2022-10-19T20:39:44.523Z,9.3
2022-10-19T20:41:49.910Z,9.2
2022-10-19T20:43:52.038Z,9.2
2022-10-19T20:45:54.191Z,9.2
2022-10-19T20:46:56.889Z,9.1
2022-10-19T20:48:59.015Z,9.1
2022-10-19T20:51:01.145Z,9.2
2022-10-19T20:53:03.345Z,9.1
2022-10-19T20:55:08.732Z,9.1
2022-10-19T20:57:10.847Z,9.2
2022-10-19T20:59:12.995Z,9.2
2022-10-19T21:01:15.197Z,9.2
2022-10-19T21:03:17.279Z,9.2
2022-10-19T21:05:19.408Z,9.1
2022-10-19T21:07:21.542Z,9.1
2022-10-19T21:09:26.922Z,9.1
2022-10-19T21:11:29.046Z,9.1
2022-10-19T21:13:31.201Z,9
2022-10-19T21:15:33.346Z,9
2022-10-19T21:17:35.476Z,9
2022-10-19T21:19:37.601Z,8.9
2022-10-19T21:21:39.725Z,8.9
2022-10-19T21:23:45.091Z,9
2022-10-19T21:25:47.226Z,9
2022-10-19T21:27:49.383Z,8.9
2022-10-19T21:33:55.767Z,8.9
2022-10-19T21:35:57.913Z,8.9
2022-10-19T21:38:03.308Z,8.8
2022-10-19T21:40:05.432Z,8.8
2022-10-19T21:42:07.569Z,8.8
2022-10-19T21:43:10.252Z,8.8
2022-10-19T21:45:29.387Z,8.8
2022-10-19T21:47:14.504Z,8.8
2022-10-19T21:49:16.628Z,8.8
2022-10-19T21:51:21.993Z,8.8
2022-10-19T21:53:24.137Z,8.8
2022-10-19T21:55:26.276Z,8.9
2022-10-19T21:57:28.382Z,8.9
2022-10-19T21:59:30.498Z,8.9
2022-10-19T22:03:34.782Z,9
2022-10-19T22:05:40.143Z,8.9
2022-10-19T22:07:42.284Z,8.9
2022-10-19T22:09:44.412Z,8.8
2022-10-19T22:11:46.553Z,8.9
2022-10-19T22:13:48.662Z,8.9
2022-10-19T22:19:58.286Z,8.8
2022-10-19T22:26:04.675Z,8.8
2022-10-19T22:28:06.803Z,8.8
2022-10-19T22:30:08.952Z,8.7
2022-10-19T22:32:11.044Z,8.8
2022-10-19T22:34:16.434Z,8.8
2022-10-19T22:36:18.539Z,8.6
2022-10-19T22:38:20.645Z,8.7
2022-10-19T22:40:49.570Z,8.7
2022-10-19T22:46:59.179Z,8.6
2022-10-19T22:51:03.438Z,8.5
2022-10-19T22:53:05.551Z,8.5
2022-10-19T22:55:07.693Z,8.5
2022-10-19T22:57:09.808Z,8.4
2022-10-19T23:01:17.370Z,8.3
2022-10-19T23:03:19.409Z,8.3
2022-10-19T23:05:21.547Z,8.3
2022-10-19T23:07:23.677Z,8.2
2022-10-19T23:09:25.784Z,8.2
2022-10-19T23:11:27.893Z,8.2
2022-10-19T23:13:30.015Z,8.1
2022-10-19T23:15:35.363Z,8.1
2022-10-19T23:17:37.771Z,8.1
2022-10-19T23:19:39.636Z,8.2
2022-10-19T23:21:41.741Z,8.2
2022-10-19T23:23:43.862Z,8.1
2022-10-19T23:25:45.991Z,8.1
2022-10-19T23:27:48.082Z,8.1
2022-10-19T23:29:53.451Z,8
2022-10-19T23:31:55.577Z,8
2022-10-19T23:33:57.679Z,7.9
2022-10-19T23:35:00.380Z,7.9
2022-10-19T23:39:04.600Z,7.9
2022-10-19T23:41:06.693Z,7.8
2022-10-19T23:43:12.073Z,7.9
2022-10-19T23:45:14.190Z,7.9
2022-10-19T23:47:16.313Z,7.9
2022-10-19T23:49:18.413Z,7.8
2022-10-19T23:51:20.528Z,7.8
2022-10-19T23:53:22.621Z,7.8
2022-10-19T23:55:24.721Z,7.7
2022-10-19T23:57:30.089Z,7.7
2022-10-19T23:59:32.182Z,7.7
